Keum Yang Family — DSNO8 — position and weather

sailwx.info

Track history (hours):
 
Tides and Currents Weather Stations Pressure Air Temp Water Temp Dewpoint Dewpoint Depression Visibility Wind Speed Wind Dir Waves Ship Positions

Keum Yang Family

Last reported at 2017-Jan-19 14:27 UTC. Time now 2017-May-27 17:30 UTC.
Position N 33°50' E 132°32'.
Warning: this ship's position is months out of date.

Length 95 m; draft 4 m.

Type: Cargo ship. MMSI: 441416000.

Date/timePositionNaut miles runAvg speedWind from/ knotsBaromVisibWave heightAir tempDewpointWater temp
2017-Jan-19 14:27N 33°50' E 132°32'9 9.8
2017-Jan-19 13:30N 33°56' E 132°40'125 9.7
2017-Jan-19 00:32N 34°36' E 135°04'9 8.7
2017-Jan-18 23:31N 34°27' E 135°03'10 9.3
2017-Jan-18 22:30N 34°18' E 134°59'8 8.7
2017-Jan-18 21:33N 34°10' E 134°59'10 9.5
2017-Jan-18 20:30N 33°60' E 134°60'240 7.5
2017-Jan-17 12:28N 35°05' E 139°41'1010.6
2017-Jan-17 11:33N 35°14' E 139°46'1010.4
2017-Jan-17 10:33N 35°24' E 139°43'7 7.1
2017-Jan-17 09:33N 35°30' E 139°45'0 0.3
2017-Jan-17 08:33N 35°31' E 139°45'0 0.0
2017-Jan-17 07:33N 35°31' E 139°45'0 0.0
2017-Jan-17 06:33N 35°31' E 139°45'0 0.0
2017-Jan-17 05:33N 35°31' E 139°45'0 0.0
2017-Jan-17 04:33N 35°31' E 139°45'0 0.0
2017-Jan-17 03:33N 35°31' E 139°45'0 0.0
2017-Jan-17 02:32N 35°31' E 139°45'0 0.0
2017-Jan-17 01:32N 35°31' E 139°45'0 0.0
2017-Jan-17 00:29N 35°31' E 139°45'0 0.0
2017-Jan-16 23:33N 35°31' E 139°45'3 3.4
2017-Jan-16 22:33N 35°28' E 139°42'2 1.7
2017-Jan-16 21:33N 35°27' E 139°43'0 0.1
2017-Jan-16 20:33N 35°27' E 139°43'0 0.0
2017-Jan-16 19:33N 35°27' E 139°43'0 0.0
2017-Jan-16 18:33N 35°27' E 139°43'0 0.0
2017-Jan-16 17:33N 35°27' E 139°43'0 0.0
2017-Jan-16 16:33N 35°27' E 139°43'0 0.0
2017-Jan-16 15:33N 35°27' E 139°43'0 0.0
2017-Jan-16 14:33N 35°27' E 139°43'0 0.0
2017-Jan-16 13:32N 35°27' E 139°43'0 0.0
2017-Jan-16 12:32N 35°27' E 139°43'0 0.0
2017-Jan-16 11:32N 35°27' E 139°43'0 0.0
2017-Jan-16 10:32N 35°27' E 139°43'0 0.0
2017-Jan-16 09:32N 35°27' E 139°43'0 0.0
2017-Jan-16 08:32N 35°27' E 139°43'0 0.1
2017-Jan-16 07:32N 35°27' E 139°43'0 0.1
2017-Jan-16 06:32N 35°27' E 139°43'0 0.1
2017-Jan-16 05:33N 35°27' E 139°43'0 0.1
2017-Jan-16 04:33N 35°27' E 139°43'9 8.5
2017-Jan-16 03:33N 35°31' E 139°52'9 9.4
2017-Jan-16 02:33N 35°39' E 139°58'2 0.6
2017-Jan-15 22:24N 35°40' E 139°57'4 5.2
2017-Jan-15 21:33N 35°36' E 139°58'0 0.0
2017-Jan-15 20:33N 35°36' E 139°58'0 0.0
2017-Jan-15 19:27N 35°36' E 139°58'0 0.0
2017-Jan-15 18:13N 35°36' E 139°58'0 0.0
2017-Jan-15 17:14N 35°36' E 139°58'0 0.0
2017-Jan-15 16:33N 35°36' E 139°58'0 0.0
2017-Jan-15 15:33N 35°36' E 139°58'0 0.0
2017-Jan-15 14:33N 35°36' E 139°58'0 0.0
2017-Jan-15 13:32N 35°36' E 139°58'0 0.0
2017-Jan-15 11:08N 35°36' E 139°58'0 0.0
2017-Jan-15 10:23N 35°36' E 139°58'0 0.0
2017-Jan-15 09:32N 35°36' E 139°58'0 0.0
2017-Jan-15 08:14N 35°36' E 139°58'0 0.0
2017-Jan-15 06:14N 35°36' E 139°58'0 0.0
2017-Jan-15 05:29N 35°36' E 139°58'0 0.0
2017-Jan-15 04:33N 35°36' E 139°58'6 6.0
2017-Jan-15 03:33N 35°31' E 139°54'9 8.7
2017-Jan-15 02:33N 35°26' E 139°45'3 3.4
2017-Jan-15 01:32N 35°28' E 139°42'0 0.0
2017-Jan-15 00:33N 35°28' E 139°42'0 0.0
2017-Jan-14 23:33N 35°28' E 139°42'0 0.0
2017-Jan-14 22:33N 35°28' E 139°42'0 0.0
2017-Jan-14 21:33N 35°28' E 139°42'0 0.0
2017-Jan-14 20:33N 35°28' E 139°42'0 0.0
2017-Jan-14 19:33N 35°28' E 139°42'0 0.0
2017-Jan-14 18:33N 35°28' E 139°42'0 0.0
2017-Jan-14 17:33N 35°28' E 139°42'0 0.0
2017-Jan-14 16:33N 35°28' E 139°42'0 0.0
2017-Jan-14 15:33N 35°28' E 139°42'0 0.0
2017-Jan-14 14:34N 35°28' E 139°42'0 0.0
2017-Jan-14 13:33N 35°28' E 139°42'0 0.0
2017-Jan-14 12:33N 35°28' E 139°42'0 0.0
2017-Jan-14 11:33N 35°28' E 139°42'0 0.0
2017-Jan-14 10:33N 35°28' E 139°42'0 0.0
2017-Jan-14 09:34N 35°28' E 139°42'0 0.0
2017-Jan-14 08:34N 35°28' E 139°42'0 0.0
2017-Jan-14 07:34N 35°28' E 139°42'0 0.0
2017-Jan-14 06:33N 35°28' E 139°42'0 0.0
2017-Jan-14 05:34N 35°28' E 139°42'0 0.0
2017-Jan-14 04:33N 35°28' E 139°42'0 0.0
2017-Jan-14 03:33N 35°28' E 139°42'0 0.0
2017-Jan-13 23:31N 35°28' E 139°42'0 0.0
2017-Jan-13 22:31N 35°28' E 139°42'0 0.0
2017-Jan-13 21:28N 35°28' E 139°42'0 0.0
2017-Jan-13 20:31N 35°28' E 139°42'0 0.0
2017-Jan-13 19:31N 35°28' E 139°42'0 0.0
2017-Jan-13 18:31N 35°28' E 139°42'0 0.0
2017-Jan-13 17:31N 35°28' E 139°42'0 0.0
2017-Jan-13 16:31N 35°28' E 139°42'0 0.0
2017-Jan-13 15:31N 35°28' E 139°42'0 0.0
2017-Jan-13 14:31N 35°28' E 139°42'0 0.0
2017-Jan-13 13:25N 35°28' E 139°42'0 0.0
2017-Jan-13 12:31N 35°28' E 139°42'0 0.0
2017-Jan-13 11:28N 35°28' E 139°42'0 0.0
2017-Jan-13 10:31N 35°28' E 139°42'0 0.0
2017-Jan-13 09:31N 35°28' E 139°42'0 0.0
2017-Jan-13 08:33N 35°28' E 139°42'0 0.0
2017-Jan-13 07:33N 35°28' E 139°42'2 1.9
2017-Jan-13 06:33N 35°27' E 139°43'2 2.1
2017-Jan-13 05:33N 35°26' E 139°46'7 6.6
2017-Jan-13 04:33N 35°19' E 139°44'7 6.5
2017-Jan-13 03:33N 35°13' E 139°47'4 3.7
2017-Jan-13 02:24N 35°09' E 139°47'4 4.3
2017-Jan-13 01:33N 35°06' E 139°45'  
Track history (hours):
 
Tides and Currents Weather Stations Pressure Air Temp Water Temp Dewpoint Dewpoint Depression Visibility Wind Speed Wind Dir Waves Ship Positions

Keum Yang Family

Last reported at 2017-Jan-19 14:27 UTC. Time now 2017-May-27 17:30 UTC.
Position N 33°50' E 132°32'.
Warning: this ship's position is months out of date.

Length 95 m; draft 4 m.

Type: Cargo ship. MMSI: 441416000.

Date/timePositionNaut miles runAvg speedWind from/ knotsBaromVisibWave heightAir tempDewpointWater temp
2017-Jan-19 14:27N 33°50' E 132°32'9 9.8
2017-Jan-19 13:30N 33°56' E 132°40'125 9.7
2017-Jan-19 00:32N 34°36' E 135°04'9 8.7
2017-Jan-18 23:31N 34°27' E 135°03'10 9.3
2017-Jan-18 22:30N 34°18' E 134°59'8 8.7
2017-Jan-18 21:33N 34°10' E 134°59'10 9.5
2017-Jan-18 20:30N 33°60' E 134°60'240 7.5
2017-Jan-17 12:28N 35°05' E 139°41'1010.6
2017-Jan-17 11:33N 35°14' E 139°46'1010.4
2017-Jan-17 10:33N 35°24' E 139°43'7 7.1
2017-Jan-17 09:33N 35°30' E 139°45'0 0.3
2017-Jan-17 08:33N 35°31' E 139°45'0 0.0
2017-Jan-17 07:33N 35°31' E 139°45'0 0.0
2017-Jan-17 06:33N 35°31' E 139°45'0 0.0
2017-Jan-17 05:33N 35°31' E 139°45'0 0.0
2017-Jan-17 04:33N 35°31' E 139°45'0 0.0
2017-Jan-17 03:33N 35°31' E 139°45'0 0.0
2017-Jan-17 02:32N 35°31' E 139°45'0 0.0
2017-Jan-17 01:32N 35°31' E 139°45'0 0.0
2017-Jan-17 00:29N 35°31' E 139°45'0 0.0
2017-Jan-16 23:33N 35°31' E 139°45'3 3.4
2017-Jan-16 22:33N 35°28' E 139°42'2 1.7
2017-Jan-16 21:33N 35°27' E 139°43'0 0.1
2017-Jan-16 20:33N 35°27' E 139°43'0 0.0
2017-Jan-16 19:33N 35°27' E 139°43'0 0.0
2017-Jan-16 18:33N 35°27' E 139°43'0 0.0
2017-Jan-16 17:33N 35°27' E 139°43'0 0.0
2017-Jan-16 16:33N 35°27' E 139°43'0 0.0
2017-Jan-16 15:33N 35°27' E 139°43'0 0.0
2017-Jan-16 14:33N 35°27' E 139°43'0 0.0
2017-Jan-16 13:32N 35°27' E 139°43'0 0.0
2017-Jan-16 12:32N 35°27' E 139°43'0 0.0
2017-Jan-16 11:32N 35°27' E 139°43'0 0.0
2017-Jan-16 10:32N 35°27' E 139°43'0 0.0
2017-Jan-16 09:32N 35°27' E 139°43'0 0.0
2017-Jan-16 08:32N 35°27' E 139°43'0 0.1
2017-Jan-16 07:32N 35°27' E 139°43'0 0.1
2017-Jan-16 06:32N 35°27' E 139°43'0 0.1
2017-Jan-16 05:33N 35°27' E 139°43'0 0.1
2017-Jan-16 04:33N 35°27' E 139°43'9 8.5
2017-Jan-16 03:33N 35°31' E 139°52'9 9.4
2017-Jan-16 02:33N 35°39' E 139°58'2 0.6
2017-Jan-15 22:24N 35°40' E 139°57'4 5.2
2017-Jan-15 21:33N 35°36' E 139°58'0 0.0
2017-Jan-15 20:33N 35°36' E 139°58'0 0.0
2017-Jan-15 19:27N 35°36' E 139°58'0 0.0
2017-Jan-15 18:13N 35°36' E 139°58'0 0.0
2017-Jan-15 17:14N 35°36' E 139°58'0 0.0
2017-Jan-15 16:33N 35°36' E 139°58'0 0.0
2017-Jan-15 15:33N 35°36' E 139°58'0 0.0
2017-Jan-15 14:33N 35°36' E 139°58'0 0.0
2017-Jan-15 13:32N 35°36' E 139°58'0 0.0
2017-Jan-15 11:08N 35°36' E 139°58'0 0.0
2017-Jan-15 10:23N 35°36' E 139°58'0 0.0
2017-Jan-15 09:32N 35°36' E 139°58'0 0.0
2017-Jan-15 08:14N 35°36' E 139°58'0 0.0
2017-Jan-15 06:14N 35°36' E 139°58'0 0.0
2017-Jan-15 05:29N 35°36' E 139°58'0 0.0
2017-Jan-15 04:33N 35°36' E 139°58'6 6.0
2017-Jan-15 03:33N 35°31' E 139°54'9 8.7
2017-Jan-15 02:33N 35°26' E 139°45'3 3.4
2017-Jan-15 01:32N 35°28' E 139°42'0 0.0
2017-Jan-15 00:33N 35°28' E 139°42'0 0.0
2017-Jan-14 23:33N 35°28' E 139°42'0 0.0
2017-Jan-14 22:33N 35°28' E 139°42'0 0.0
2017-Jan-14 21:33N 35°28' E 139°42'0 0.0
2017-Jan-14 20:33N 35°28' E 139°42'0 0.0
2017-Jan-14 19:33N 35°28' E 139°42'0 0.0
2017-Jan-14 18:33N 35°28' E 139°42'0 0.0
2017-Jan-14 17:33N 35°28' E 139°42'0 0.0
2017-Jan-14 16:33N 35°28' E 139°42'0 0.0
2017-Jan-14 15:33N 35°28' E 139°42'0 0.0
2017-Jan-14 14:34N 35°28' E 139°42'0 0.0
2017-Jan-14 13:33N 35°28' E 139°42'0 0.0
2017-Jan-14 12:33N 35°28' E 139°42'0 0.0
2017-Jan-14 11:33N 35°28' E 139°42'0 0.0
2017-Jan-14 10:33N 35°28' E 139°42'0 0.0
2017-Jan-14 09:34N 35°28' E 139°42'0 0.0
2017-Jan-14 08:34N 35°28' E 139°42'0 0.0
2017-Jan-14 07:34N 35°28' E 139°42'0 0.0
2017-Jan-14 06:33N 35°28' E 139°42'0 0.0
2017-Jan-14 05:34N 35°28' E 139°42'0 0.0
2017-Jan-14 04:33N 35°28' E 139°42'0 0.0
2017-Jan-14 03:33N 35°28' E 139°42'0 0.0
2017-Jan-13 23:31N 35°28' E 139°42'0 0.0
2017-Jan-13 22:31N 35°28' E 139°42'0 0.0
2017-Jan-13 21:28N 35°28' E 139°42'0 0.0
2017-Jan-13 20:31N 35°28' E 139°42'0 0.0
2017-Jan-13 19:31N 35°28' E 139°42'0 0.0
2017-Jan-13 18:31N 35°28' E 139°42'0 0.0
2017-Jan-13 17:31N 35°28' E 139°42'0 0.0
2017-Jan-13 16:31N 35°28' E 139°42'0 0.0
2017-Jan-13 15:31N 35°28' E 139°42'0 0.0
2017-Jan-13 14:31N 35°28' E 139°42'0 0.0
2017-Jan-13 13:25N 35°28' E 139°42'0 0.0
2017-Jan-13 12:31N 35°28' E 139°42'0 0.0
2017-Jan-13 11:28N 35°28' E 139°42'0 0.0
2017-Jan-13 10:31N 35°28' E 139°42'0 0.0
2017-Jan-13 09:31N 35°28' E 139°42'0 0.0
2017-Jan-13 08:33N 35°28' E 139°42'0 0.0
2017-Jan-13 07:33N 35°28' E 139°42'2 1.9
2017-Jan-13 06:33N 35°27' E 139°43'2 2.1
2017-Jan-13 05:33N 35°26' E 139°46'7 6.6
2017-Jan-13 04:33N 35°19' E 139°44'7 6.5
2017-Jan-13 03:33N 35°13' E 139°47'4 3.7
2017-Jan-13 02:24N 35°09' E 139°47'4 4.3
2017-Jan-13 01:33N 35°06' E 139°45'  

Dump ship's entire track history